Nearby METAR Reports

 

KPRB - Paso Robles, California, USA
Distance from station: SW 1mi, 1km
Updated: 08/27/2015 4:53pm
Clear
Clear
 Wind from W
Wind: W 5 mph , 7 km/h
Temperature: 102°F , 39°C
Dew Point: 39°F , 4°C
Humidity: 11%
Barometer: 29.90 inHg , 1012.5 hPa
Clouds: Clear
Visibility: 10 miles , 16 km
2015/08/27 23:53 KPRB 272353Z AUTO 28004KT 10SM CLR 39/04 A2990 RMK AO2 SLP116 60000 T03940039 10406 20300 56029 TSNO
KSBP - San Luis Obispo, California, USA
Distance from station: S 30mi, 49km
Updated: 08/27/2015 4:56pm
Clear
Clear
 Wind from NNW
Wind: NNW 21 mph , 33 km/h
Temperature: 90°F , 32°C
Dew Point: 46°F , 8°C
Humidity: 22%
Barometer: 29.89 inHg , 1012.2 hPa
Clouds: Clear
Visibility: 10 miles , 16 km
2015/08/27 23:56 KSBP 272356Z 33018KT 10SM CLR 32/08 A2989 RMK AO2 SLP117 T03170083 10389 20317 58016
 
KSMX - Santa Maria, California, USA
Distance from station: S 54mi, 87km
Updated: 08/27/2015 4:51pm
Clear
Clear
 Wind from WNW
Wind: WNW 15 mph , 24 km/h
Temperature: 88°F , 31°C
Dew Point: 52°F , 11°C
Humidity: 29%
Barometer: 29.91 inHg , 1012.9 hPa
Clouds: Clear
Visibility: 10 miles , 16 km
2015/08/27 23:51 KSMX 272351Z 30013KT 10SM CLR 31/11 A2991 RMK AO2 SLP126 T03060111 10333 20283 58018 $
KNLC - Lemoore Nas/Reev, California, USA
Distance from station: NE 58mi, 94km
Updated: 08/27/2015 4:56pm
Few Clouds
Few Clouds
 Wind from N
Wind: N 10 mph , 17 km/h
Temperature: 102°F , 39°C
Dew Point: 43°F , 6°C
Humidity: 13%
Barometer: 29.89 inHg , 1012.2 hPa
Clouds: Few Clouds
Visibility: 10 miles , 16 km
Cloud details: Few Clouds 21000 ft
2015/08/27 23:56 KNLC 272356Z 01009KT 10SM FEW210 39/06 A2989 RMK AO2 SLP119 RH/13 T03890056 10394 20328 56027
 
KVBG - Vandenberg Afb, California, USA
Distance from station: S 65mi, 105km
Updated: 08/27/2015 4:55pm
Few Clouds
Few Clouds
 Wind from NNW
Wind: NNW 13 mph , 20 km/h
Temperature: 77°F , 25°C
Dew Point: 57°F , 14°C
Humidity: 51%
Barometer: 29.93 inHg , 1013.5 hPa
Clouds: Few Clouds
Visibility: 10 miles , 16 km
Cloud details: Few Clouds 25000 ft
2015/08/27 23:55 KVBG 272355Z 33011KT 10SM FEW250 25/14 A2993 RMK AO2A SLP133 T02460140 10275 20238 58017 LAST
KLPC - Lompoc, California, USA
Distance from station: S 70mi, 113km
Updated: 08/27/2015 4:55pm
Clear
Clear
 Wind from W
Wind: W 12 mph , 19 km/h
Temperature: 81°F , 27°C
Heat Index: 81°F , 27°C
Dew Point: 59°F , 15°C
Humidity: 48%
Barometer: 29.92 inHg , 1013.2 hPa
Clouds: Clear
Visibility: 10 miles , 16 km
2015/08/27 23:55 KLPC 272355Z AUTO 26010KT 10SM CLR 27/15 A2992 RMK AO1 10310 20260 57017
 
KHJO - Hanford, California, USA
Distance from station: NE 72mi, 116km
Updated: 08/27/2015 4:53pm
Clear
Clear
 Wind from varies
Wind: varies 7 mph , 11 km/h
Temperature: 102°F , 39°C
Dew Point: 46°F , 8°C
Humidity: 15%
Barometer: 29.89 inHg , 1012.2 hPa
Clouds: Clear
Visibility: 10 miles , 16 km
2015/08/27 23:53 KHJO 272353Z AUTO VRB06KT 10SM CLR 39/08 A2989 RMK AO2 SLP121 T03890083 10394 20311 56027